Terminal Aerodrome Forecast
Issued by NWS

Current Version | Previous Version | Graphics & Text | Print | Product List | Glossary On
Versions: 1 2 3 4 5 6 7 8 9 10 11 12 13 14 15 16 17 18 19 20 21 22 23 24 25 26
535
FTUS41 KPBZ 300101 AAA
TAFHLG
TAF AMD
KHLG 300101Z 3001/3024 34008KT P6SM OVC010
      TEMPO 3001/3003 5SM -DZ BR OVC008
     FM300900 VRB03KT 3SM BR SCT015
     FM301400 11005KT P6SM BKN140
     FM302100 15005KT 5SM -RA OVC060
     FM302300 15005KT 2SM -RA BR OVC020=

USA.gov is the U.S. government's official web portal to all federal, state and local government web resources and services.